Historique des mesures à Cassis (13260), France
Quotidien Résumé Avril 22, 2017 Unités:  Métrique    US   Métrique/US
« Précédent (Jour)
Suivant (Jour) »
Quotidien Hebdomadaire Mensuel Annuel Période au choix
  Maximum: Minimum: Moyenne:
Température: TemperatureC °C 9.6 °C 13.4 °C
Point de rosée: DewpointC °C 4.2 °C 7.7 °C
Humidité: Humidity % 57 % 66 %
Vitesse du vent: 0 km/h 0 km/h 5.8 km/h
Rafales: 0 km/h - -
Vent:- - SSE
Pression: PressurehPa hPa 1017.2 hPa -
Précipitations: 0.0 mm    
Historical Graphs
 
 
Mesures pour : Avril 22, 2017
Heure Temperature Point de rosée Pression Vent Vitesse du vent Rafales Humidité Pluie (par heure) Conditions
TemperatureC °C DewpointC °C PressurehPa hPa Calm     Humidity % HourlyPrecipMM mm SoftwareType W/m2
00:11 10.3 °C 4.2 °C 1024.9 hPa North 3.4 km/h 3.4 km/h 66 % 0.0 mm open2300-1.11 W/m2
01:10 10.2 °C 4.6 °C 1024.6 hPa NNE 2.9 km/h 3.4 km/h 68 % 0.0 mm open2300-1.11 W/m2
02:10 9.8 °C 4.8 °C 1024.3 hPa NNE 2.3 km/h 4.2 km/h 71 % 0.0 mm open2300-1.11 W/m2
03:11 9.8 °C 5.4 °C 1023.9 hPa North 5.1 km/h 5.1 km/h 74 % 0.0 mm open2300-1.11 W/m2
04:10 10.1 °C 6.1 °C 1023.6 hPa NNE 3.4 km/h 4.2 km/h 76 % 0.0 mm open2300-1.11 W/m2
05:10 9.8 °C 5.9 °C 1023.2 hPa NNE 4.2 km/h 4.2 km/h 77 % 0.0 mm open2300-1.11 W/m2
06:11 9.6 °C 5.9 °C 1022.9 hPa Calm     78 % 0.0 mm open2300-1.11 W/m2
07:10 9.6 °C 6.1 °C 1022.9 hPa Calm     79 % 0.0 mm open2300-1.11 W/m2
08:11 11.6 °C 7.9 °C 1023.2 hPa NNE 3.4 km/h 3.4 km/h 78 % 0.0 mm open2300-1.11 W/m2
09:10 12.7 °C 8.6 °C 1022.9 hPa NNW 4.2 km/h 6.4 km/h 76 % 0.0 mm open2300-1.11 W/m2
10:10 13.6 °C 8.8 °C 1022.6 hPa West 8.9 km/h 10.3 km/h 73 % 0.0 mm open2300-1.11 W/m2
11:10 16.5 °C 9.2 °C 1022.2 hPa WNW 15 km/h 15 km/h 62 % 0.0 mm open2300-1.11 W/m2
12:11 18.2 °C 10.0 °C 1021.9 hPa South 5.1 km/h 6.4 km/h 59 % 0.0 mm open2300-1.11 W/m2
13:10 18.9 °C 10.4 °C 1021.2 hPa WSW 13.2 km/h 17.9 km/h 58 % 0.0 mm open2300-1.11 W/m2
14:10 19.1 °C 10.7 °C 1020.5 hPa SW 15.6 km/h 15.6 km/h 58 % 0.0 mm open2300-1.11 W/m2
15:10 18.7 °C 10.0 °C 1019.9 hPa SSW 6.9 km/h 26.7 km/h 57 % 0.0 mm open2300-1.11 W/m2
16:10 18.3 °C 10.1 °C 1019.2 hPa SSW 30.7 km/h 30.7 km/h 59 % 0.0 mm open2300-1.11 W/m2
17:10 17.4 °C 10.3 °C 1018.5 hPa Calm   5.6 km/h 63 % 0.0 mm open2300-1.11 W/m2
18:11 17.2 °C 10.3 °C 1018.2 hPa West 12.7 km/h 26.7 km/h 64 % 0.0 mm open2300-1.11 W/m2
19:10 16.2 °C 9.6 °C 1017.8 hPa SW 6.4 km/h 14 km/h 65 % 0.0 mm open2300-1.11 W/m2
20:11 15.3 °C 9.0 °C 1017.5 hPa Calm   6.4 km/h 66 % 0.0 mm open2300-1.11 W/m2
21:10 14.3 °C 8.4 °C 1017.8 hPa Calm     68 % 0.0 mm open2300-1.11 W/m2
22:10 13.1 °C 8.2 °C 1017.5 hPa Calm     72 % 0.0 mm open2300-1.11 W/m2
23:10 13.6 °C 8.8 °C 1017.2 hPa Calm     73 % 0.0 mm open2300-1.11 W/m2
Observations météo à CASSIS
WU-History script by Weather Underground - 1 mb